sensor_id;sensor_type;location;lat;lon;timestamp;pressure;altitude;pressure_sealevel;temperature;humidity
75219;BME280;63801;49.414;19.474;2023-03-23T00:01:22;93507.59;;;5.30;70.57
75219;BME280;63801;49.414;19.474;2023-03-23T00:03:24;93520.47;;;5.28;70.60
75219;BME280;63801;49.414;19.474;2023-03-23T00:05:26;93518.78;;;5.24;70.86
75219;BME280;63801;49.414;19.474;2023-03-23T00:07:29;93517.06;;;5.19;70.77
75219;BME280;63801;49.414;19.474;2023-03-23T00:09:29;93519.59;;;5.16;70.72
75219;BME280;63801;49.414;19.474;2023-03-23T00:11:34;93517.09;;;5.11;70.88
75219;BME280;63801;49.414;19.474;2023-03-23T00:13:34;93515.06;;;5.08;70.89
75219;BME280;63801;49.414;19.474;2023-03-23T00:15:35;93513.50;;;5.07;70.97
75219;BME280;63801;49.414;19.474;2023-03-23T00:17:35;93508.78;;;5.04;71.00
75219;BME280;63801;49.414;19.474;2023-03-23T00:19:39;93512.56;;;5.03;70.99
75219;BME280;63801;49.414;19.474;2023-03-23T00:21:46;93522.78;;;5.01;71.14
75219;BME280;63801;49.414;19.474;2023-03-23T00:23:46;93509.28;;;4.97;71.07
75219;BME280;63801;49.414;19.474;2023-03-23T00:25:47;93505.38;;;4.94;71.27
75219;BME280;63801;49.414;19.474;2023-03-23T00:27:48;93507.56;;;4.92;71.37
75219;BME280;63801;49.414;19.474;2023-03-23T00:29:49;93507.09;;;4.90;71.61
75219;BME280;63801;49.414;19.474;2023-03-23T00:31:52;93505.81;;;4.96;72.67
75219;BME280;63801;49.414;19.474;2023-03-23T00:33:52;93502.16;;;5.10;73.75
75219;BME280;63801;49.414;19.474;2023-03-23T00:35:54;93508.84;;;5.33;74.19
75219;BME280;63801;49.414;19.474;2023-03-23T00:37:54;93503.88;;;5.52;74.51
75219;BME280;63801;49.414;19.474;2023-03-23T00:39:55;93508.47;;;5.72;73.68
75219;BME280;63801;49.414;19.474;2023-03-23T00:41:57;93499.63;;;5.80;73.65
75219;BME280;63801;49.414;19.474;2023-03-23T00:44:00;93497.25;;;5.88;73.69
75219;BME280;63801;49.414;19.474;2023-03-23T00:46:01;93491.38;;;5.94;73.75
75219;BME280;63801;49.414;19.474;2023-03-23T00:48:02;93500.66;;;5.97;73.01
75219;BME280;63801;49.414;19.474;2023-03-23T00:50:05;93489.69;;;5.90;72.88
75219;BME280;63801;49.414;19.474;2023-03-23T00:52:06;93488.91;;;5.80;72.47
75219;BME280;63801;49.414;19.474;2023-03-23T00:54:07;93488.41;;;5.66;71.82
75219;BME280;63801;49.414;19.474;2023-03-23T00:56:08;93482.50;;;5.52;72.05
75219;BME280;63801;49.414;19.474;2023-03-23T00:58:10;93489.28;;;5.41;72.01
75219;BME280;63801;49.414;19.474;2023-03-23T01:00:11;93479.00;;;5.31;72.13
75219;BME280;63801;49.414;19.474;2023-03-23T01:02:11;93485.13;;;5.23;71.97
75219;BME280;63801;49.414;19.474;2023-03-23T01:04:12;93480.63;;;5.15;72.25
75219;BME280;63801;49.414;19.474;2023-03-23T01:06:12;93477.66;;;5.08;72.17
75219;BME280;63801;49.414;19.474;2023-03-23T01:08:13;93477.03;;;5.02;72.50
75219;BME280;63801;49.414;19.474;2023-03-23T01:10:14;93480.22;;;4.95;72.44
75219;BME280;63801;49.414;19.474;2023-03-23T01:12:17;93480.69;;;4.97;72.99
75219;BME280;63801;49.414;19.474;2023-03-23T01:14:19;93469.34;;;5.01;73.10
75219;BME280;63801;49.414;19.474;2023-03-23T01:16:20;93474.09;;;4.95;72.54
75219;BME280;63801;49.414;19.474;2023-03-23T01:18:20;93474.56;;;4.88;72.48
75219;BME280;63801;49.414;19.474;2023-03-23T01:20:21;93480.44;;;4.82;72.57
75219;BME280;63801;49.414;19.474;2023-03-23T01:22:21;93470.88;;;4.72;72.96
75219;BME280;63801;49.414;19.474;2023-03-23T01:24:22;93474.16;;;4.69;72.99
75219;BME280;63801;49.414;19.474;2023-03-23T01:26:24;93472.78;;;4.63;73.16
75219;BME280;63801;49.414;19.474;2023-03-23T01:28:25;93476.84;;;4.61;72.87
75219;BME280;63801;49.414;19.474;2023-03-23T01:30:26;93472.63;;;4.60;73.12
75219;BME280;63801;49.414;19.474;2023-03-23T01:32:27;93472.94;;;4.58;73.28
75219;BME280;63801;49.414;19.474;2023-03-23T01:34:27;93469.63;;;4.61;73.20
75219;BME280;63801;49.414;19.474;2023-03-23T01:36:29;93463.34;;;4.57;72.95
75219;BME280;63801;49.414;19.474;2023-03-23T01:38:33;93474.97;;;4.61;73.09
75219;BME280;63801;49.414;19.474;2023-03-23T01:40:33;93473.88;;;4.62;73.22
75219;BME280;63801;49.414;19.474;2023-03-23T01:42:35;93478.09;;;4.63;73.02
75219;BME280;63801;49.414;19.474;2023-03-23T01:46:36;93471.97;;;4.63;73.28
75219;BME280;63801;49.414;19.474;2023-03-23T01:48:37;93462.53;;;4.65;73.31
75219;BME280;63801;49.414;19.474;2023-03-23T01:51:00;93470.38;;;4.70;73.54
75219;BME280;63801;49.414;19.474;2023-03-23T01:53:04;93458.13;;;4.78;73.67
75219;BME280;63801;49.414;19.474;2023-03-23T01:55:08;93461.88;;;4.85;74.25
75219;BME280;63801;49.414;19.474;2023-03-23T01:57:12;93462.59;;;5.03;74.87
75219;BME280;63801;49.414;19.474;2023-03-23T01:59:13;93459.06;;;5.20;75.18
75219;BME280;63801;49.414;19.474;2023-03-23T02:01:15;93463.03;;;5.43;75.01
75219;BME280;63801;49.414;19.474;2023-03-23T02:03:16;93465.13;;;5.58;75.31
75219;BME280;63801;49.414;19.474;2023-03-23T02:05:32;93463.34;;;5.71;75.07
75219;BME280;63801;49.414;19.474;2023-03-23T02:07:34;93456.63;;;5.85;75.75
75219;BME280;63801;49.414;19.474;2023-03-23T02:09:35;93451.84;;;6.00;75.58
75219;BME280;63801;49.414;19.474;2023-03-23T02:11:35;93456.84;;;6.22;75.84
75219;BME280;63801;49.414;19.474;2023-03-23T02:13:35;93460.38;;;6.35;75.57
75219;BME280;63801;49.414;19.474;2023-03-23T02:15:46;93457.88;;;6.50;75.53
75219;BME280;63801;49.414;19.474;2023-03-23T02:18:23;93461.03;;;6.64;75.79
75219;BME280;63801;49.414;19.474;2023-03-23T02:30:30;93450.19;;;6.94;74.48
75219;BME280;63801;49.414;19.474;2023-03-23T02:32:53;93454.88;;;6.97;74.59
75219;BME280;63801;49.414;19.474;2023-03-23T02:35:03;93451.97;;;7.02;74.57
75219;BME280;63801;49.414;19.474;2023-03-23T02:37:21;93455.09;;;7.04;74.57
75219;BME280;63801;49.414;19.474;2023-03-23T02:39:28;93462.59;;;7.10;74.62
75219;BME280;63801;49.414;19.474;2023-03-23T02:41:32;93456.13;;;7.11;74.53
75219;BME280;63801;49.414;19.474;2023-03-23T02:43:40;93460.13;;;7.17;74.41
75219;BME280;63801;49.414;19.474;2023-03-23T02:45:44;93455.56;;;7.18;74.40
75219;BME280;63801;49.414;19.474;2023-03-23T02:47:47;93438.59;;;7.14;74.43
75219;BME280;63801;49.414;19.474;2023-03-23T02:49:52;93451.22;;;7.26;74.31
75219;BME280;63801;49.414;19.474;2023-03-23T02:51:54;93447.53;;;7.30;74.28
75219;BME280;63801;49.414;19.474;2023-03-23T02:53:56;93443.19;;;7.38;74.16
75219;BME280;63801;49.414;19.474;2023-03-23T02:55:58;93455.22;;;7.44;74.04
75219;BME280;63801;49.414;19.474;2023-03-23T02:58:01;93447.75;;;7.49;73.94
75219;BME280;63801;49.414;19.474;2023-03-23T03:00:04;93444.84;;;7.54;73.82
75219;BME280;63801;49.414;19.474;2023-03-23T03:02:22;93450.78;;;7.60;73.69
75219;BME280;63801;49.414;19.474;2023-03-23T03:04:25;93444.38;;;7.52;73.35
75219;BME280;63801;49.414;19.474;2023-03-23T03:06:45;93451.31;;;7.53;73.00
75219;BME280;63801;49.414;19.474;2023-03-23T03:08:53;93443.28;;;7.41;72.60
75219;BME280;63801;49.414;19.474;2023-03-23T03:13:14;93449.09;;;7.07;73.05
75219;BME280;63801;49.414;19.474;2023-03-23T03:17:25;93433.66;;;7.04;73.86
75219;BME280;63801;49.414;19.474;2023-03-23T03:19:31;93445.50;;;7.15;73.79
75219;BME280;63801;49.414;19.474;2023-03-23T03:21:35;93444.63;;;7.23;73.75
75219;BME280;63801;49.414;19.474;2023-03-23T03:23:38;93447.53;;;7.30;73.38
75219;BME280;63801;49.414;19.474;2023-03-23T03:25:43;93447.09;;;7.16;72.21
75219;BME280;63801;49.414;19.474;2023-03-23T03:27:48;93434.88;;;6.94;72.37
75219;BME280;63801;49.414;19.474;2023-03-23T03:29:55;93446.03;;;6.84;72.62
75219;BME280;63801;49.414;19.474;2023-03-23T03:31:59;93439.16;;;6.62;71.84
75219;BME280;63801;49.414;19.474;2023-03-23T03:34:01;93446.00;;;6.39;72.10
75219;BME280;63801;49.414;19.474;2023-03-23T03:36:04;93445.25;;;6.18;72.20
75219;BME280;63801;49.414;19.474;2023-03-23T03:38:10;93443.50;;;6.01;72.57
75219;BME280;63801;49.414;19.474;2023-03-23T03:40:13;93444.53;;;5.88;72.83
75219;BME280;63801;49.414;19.474;2023-03-23T03:42:14;93442.53;;;5.76;72.54
75219;BME280;63801;49.414;19.474;2023-03-23T03:44:15;93442.16;;;5.66;72.88
75219;BME280;63801;49.414;19.474;2023-03-23T03:46:15;93449.09;;;5.58;73.08
75219;BME280;63801;49.414;19.474;2023-03-23T03:48:15;93444.41;;;5.55;73.46
75219;BME280;63801;49.414;19.474;2023-03-23T03:50:16;93438.63;;;5.53;73.54
75219;BME280;63801;49.414;19.474;2023-03-23T03:52:16;93442.53;;;5.56;73.70
75219;BME280;63801;49.414;19.474;2023-03-23T03:54:17;93448.53;;;5.53;73.63
75219;BME280;63801;49.414;19.474;2023-03-23T03:56:17;93445.69;;;5.49;73.68
75219;BME280;63801;49.414;19.474;2023-03-23T03:58:18;93451.25;;;5.44;73.49
75219;BME280;63801;49.414;19.474;2023-03-23T04:00:18;93442.28;;;5.40;73.40
75219;BME280;63801;49.414;19.474;2023-03-23T04:02:19;93440.59;;;5.35;73.67
75219;BME280;63801;49.414;19.474;2023-03-23T04:04:20;93445.16;;;5.35;73.53
75219;BME280;63801;49.414;19.474;2023-03-23T04:06:22;93441.09;;;5.29;73.88
75219;BME280;63801;49.414;19.474;2023-03-23T04:08:22;93423.09;;;5.17;73.84
75219;BME280;63801;49.414;19.474;2023-03-23T04:10:23;93445.53;;;5.25;74.17
75219;BME280;63801;49.414;19.474;2023-03-23T04:12:24;93439.56;;;5.19;74.46
75219;BME280;63801;49.414;19.474;2023-03-23T04:14:24;93436.47;;;5.17;73.87
75219;BME280;63801;49.414;19.474;2023-03-23T04:16:24;93430.94;;;5.14;74.58
75219;BME280;63801;49.414;19.474;2023-03-23T04:18:26;93431.16;;;5.09;74.43
75219;BME280;63801;49.414;19.474;2023-03-23T04:20:26;93435.84;;;5.12;74.24
75219;BME280;63801;49.414;19.474;2023-03-23T04:22:27;93435.06;;;5.11;74.26
75219;BME280;63801;49.414;19.474;2023-03-23T04:24:31;93438.03;;;5.10;74.32
75219;BME280;63801;49.414;19.474;2023-03-23T04:26:33;93436.03;;;5.07;74.42
75219;BME280;63801;49.414;19.474;2023-03-23T04:28:33;93420.94;;;5.02;74.39
75219;BME280;63801;49.414;19.474;2023-03-23T04:30:34;93434.00;;;5.04;74.73
75219;BME280;63801;49.414;19.474;2023-03-23T04:32:34;93429.09;;;5.06;74.69
75219;BME280;63801;49.414;19.474;2023-03-23T04:34:35;93429.44;;;5.04;75.04
75219;BME280;63801;49.414;19.474;2023-03-23T04:36:36;93424.09;;;5.04;75.48
75219;BME280;63801;49.414;19.474;2023-03-23T04:38:36;93433.81;;;5.09;75.29
75219;BME280;63801;49.414;19.474;2023-03-23T04:40:37;93432.53;;;5.15;74.92
75219;BME280;63801;49.414;19.474;2023-03-23T04:42:38;93432.34;;;5.20;74.87
75219;BME280;63801;49.414;19.474;2023-03-23T04:44:39;93431.91;;;5.18;74.63
75219;BME280;63801;49.414;19.474;2023-03-23T04:46:39;93432.47;;;5.23;75.10
75219;BME280;63801;49.414;19.474;2023-03-23T04:48:40;93429.13;;;5.35;75.99
75219;BME280;63801;49.414;19.474;2023-03-23T04:50:41;93419.44;;;5.51;76.67
75219;BME280;63801;49.414;19.474;2023-03-23T04:52:41;93427.38;;;5.89;76.89
75219;BME280;63801;49.414;19.474;2023-03-23T04:54:45;93437.66;;;6.20;76.77
75219;BME280;63801;49.414;19.474;2023-03-23T04:56:45;93434.63;;;6.42;76.29
75219;BME280;63801;49.414;19.474;2023-03-23T04:58:46;93431.81;;;6.59;75.75
75219;BME280;63801;49.414;19.474;2023-03-23T05:00:46;93421.53;;;6.61;74.92
75219;BME280;63801;49.414;19.474;2023-03-23T05:02:49;93428.97;;;6.56;74.12
75219;BME280;63801;49.414;19.474;2023-03-23T05:04:52;93418.03;;;6.49;74.11
75219;BME280;63801;49.414;19.474;2023-03-23T05:06:52;93415.69;;;6.47;74.25
75219;BME280;63801;49.414;19.474;2023-03-23T05:08:53;93412.13;;;6.55;74.42
75219;BME280;63801;49.414;19.474;2023-03-23T05:10:56;93415.78;;;6.84;75.17
75219;BME280;63801;49.414;19.474;2023-03-23T05:12:57;93423.28;;;7.27;74.76
75219;BME280;63801;49.414;19.474;2023-03-23T05:14:57;93435.66;;;7.67;74.25
75219;BME280;63801;49.414;19.474;2023-03-23T05:16:57;93445.44;;;8.12;73.64
75219;BME280;63801;49.414;19.474;2023-03-23T05:18:58;93452.13;;;8.58;73.20
75219;BME280;63801;49.414;19.474;2023-03-23T05:21:02;93446.13;;;9.08;72.48
75219;BME280;63801;49.414;19.474;2023-03-23T05:23:03;93449.09;;;9.50;72.02
75219;BME280;63801;49.414;19.474;2023-03-23T05:25:05;93444.53;;;9.85;71.35
75219;BME280;63801;49.414;19.474;2023-03-23T05:27:09;93442.44;;;10.14;70.87
75219;BME280;63801;49.414;19.474;2023-03-23T05:29:10;93445.34;;;10.21;69.35
75219;BME280;63801;49.414;19.474;2023-03-23T05:31:10;93444.38;;;10.13;69.98
75219;BME280;63801;49.414;19.474;2023-03-23T05:33:11;93445.06;;;10.10;70.03
75219;BME280;63801;49.414;19.474;2023-03-23T05:35:12;93444.94;;;10.03;69.71
75219;BME280;63801;49.414;19.474;2023-03-23T05:37:12;93447.75;;;9.91;69.48
75219;BME280;63801;49.414;19.474;2023-03-23T05:39:13;93444.38;;;9.78;69.19
75219;BME280;63801;49.414;19.474;2023-03-23T05:41:15;93448.75;;;9.67;69.24
75219;BME280;63801;49.414;19.474;2023-03-23T05:43:15;93438.56;;;9.61;69.52
75219;BME280;63801;49.414;19.474;2023-03-23T05:45:16;93449.59;;;9.71;69.76
75219;BME280;63801;49.414;19.474;2023-03-23T05:47:16;93447.16;;;9.82;69.82
75219;BME280;63801;49.414;19.474;2023-03-23T05:49:17;93447.31;;;9.89;69.88
75219;BME280;63801;49.414;19.474;2023-03-23T05:51:17;93451.63;;;9.93;69.72
75219;BME280;63801;49.414;19.474;2023-03-23T05:53:18;93448.59;;;9.95;69.72
75219;BME280;63801;49.414;19.474;2023-03-23T05:55:19;93446.19;;;9.90;69.43
75219;BME280;63801;49.414;19.474;2023-03-23T05:57:19;93444.63;;;9.89;69.22
75219;BME280;63801;49.414;19.474;2023-03-23T05:59:23;93443.75;;;9.85;68.97
75219;BME280;63801;49.414;19.474;2023-03-23T06:01:24;93449.66;;;9.75;68.93
75219;BME280;63801;49.414;19.474;2023-03-23T06:03:24;93451.50;;;9.71;68.81
75219;BME280;63801;49.414;19.474;2023-03-23T06:05:25;93450.50;;;9.60;68.84
75219;BME280;63801;49.414;19.474;2023-03-23T06:07:26;93446.03;;;9.52;68.77
75219;BME280;63801;49.414;19.474;2023-03-23T06:09:26;93447.09;;;9.47;69.05
75219;BME280;63801;49.414;19.474;2023-03-23T06:11:26;93442.50;;;9.47;69.22
75219;BME280;63801;49.414;19.474;2023-03-23T06:13:27;93432.88;;;9.46;69.49
75219;BME280;63801;49.414;19.474;2023-03-23T06:15:28;93433.47;;;9.56;69.21
75219;BME280;63801;49.414;19.474;2023-03-23T06:17:31;93449.59;;;9.71;69.30
75219;BME280;63801;49.414;19.474;2023-03-23T06:19:31;93434.56;;;9.86;69.67
75219;BME280;63801;49.414;19.474;2023-03-23T06:21:32;93443.72;;;10.16;68.83
75219;BME280;63801;49.414;19.474;2023-03-23T06:23:33;93446.41;;;10.55;68.98
75219;BME280;63801;49.414;19.474;2023-03-23T06:25:34;93445.38;;;11.01;68.46
75219;BME280;63801;49.414;19.474;2023-03-23T06:27:34;93440.41;;;11.49;67.87
75219;BME280;63801;49.414;19.474;2023-03-23T06:29:35;93438.63;;;12.05;66.40
75219;BME280;63801;49.414;19.474;2023-03-23T06:31:48;93439.28;;;12.55;64.73
75219;BME280;63801;49.414;19.474;2023-03-23T06:33:51;93435.03;;;12.87;62.70
75219;BME280;63801;49.414;19.474;2023-03-23T06:35:51;93442.44;;;12.94;62.34
75219;BME280;63801;49.414;19.474;2023-03-23T06:37:52;93447.47;;;12.95;61.55
75219;BME280;63801;49.414;19.474;2023-03-23T06:39:53;93461.72;;;12.92;61.86
75219;BME280;63801;49.414;19.474;2023-03-23T06:41:54;93446.97;;;12.83;60.90
75219;BME280;63801;49.414;19.474;2023-03-23T06:43:54;93445.94;;;12.61;60.84
75219;BME280;63801;49.414;19.474;2023-03-23T06:45:54;93447.47;;;12.62;60.26
75219;BME280;63801;49.414;19.474;2023-03-23T06:47:55;93442.22;;;13.10;59.80
75219;BME280;63801;49.414;19.474;2023-03-23T06:49:56;93451.69;;;13.67;59.05
75219;BME280;63801;49.414;19.474;2023-03-23T06:51:57;93438.56;;;14.27;58.29
75219;BME280;63801;49.414;19.474;2023-03-23T06:53:57;93441.94;;;14.78;57.14
75219;BME280;63801;49.414;19.474;2023-03-23T06:55:58;93437.00;;;15.09;55.45
75219;BME280;63801;49.414;19.474;2023-03-23T06:57:58;93419.59;;;15.42;55.40
75219;BME280;63801;49.414;19.474;2023-03-23T07:00:01;93426.25;;;16.01;54.16
75219;BME280;63801;49.414;19.474;2023-03-23T07:02:12;93429.66;;;16.54;52.64
75219;BME280;63801;49.414;19.474;2023-03-23T07:04:14;93446.69;;;16.83;51.49
75219;BME280;63801;49.414;19.474;2023-03-23T07:06:15;93431.38;;;17.21;51.09
75219;BME280;63801;49.414;19.474;2023-03-23T07:08:16;93445.16;;;17.55;49.92
75219;BME280;63801;49.414;19.474;2023-03-23T07:10:16;93442.44;;;17.59;49.49
75219;BME280;63801;49.414;19.474;2023-03-23T07:12:17;93453.75;;;17.50;48.47
75219;BME280;63801;49.414;19.474;2023-03-23T07:14:17;93439.09;;;17.26;48.63
75219;BME280;63801;49.414;19.474;2023-03-23T07:16:17;93445.47;;;16.98;48.43
75219;BME280;63801;49.414;19.474;2023-03-23T07:18:18;93447.88;;;16.86;48.44
75219;BME280;63801;49.414;19.474;2023-03-23T07:20:19;93439.75;;;16.72;48.15
75219;BME280;63801;49.414;19.474;2023-03-23T07:22:20;93470.09;;;16.49;48.37
75219;BME280;63801;49.414;19.474;2023-03-23T07:24:20;93449.91;;;16.25;49.13
75219;BME280;63801;49.414;19.474;2023-03-23T07:26:20;93446.06;;;16.05;49.48
75219;BME280;63801;49.414;19.474;2023-03-23T07:28:21;93444.50;;;15.90;49.37
75219;BME280;63801;49.414;19.474;2023-03-23T07:30:21;93459.28;;;15.75;49.99
75219;BME280;63801;49.414;19.474;2023-03-23T07:32:22;93445.66;;;15.60;49.90
75219;BME280;63801;49.414;19.474;2023-03-23T07:34:22;93454.50;;;15.36;50.34
75219;BME280;63801;49.414;19.474;2023-03-23T07:36:23;93471.19;;;15.27;50.42
75219;BME280;63801;49.414;19.474;2023-03-23T07:38:23;93434.25;;;15.02;50.62
75219;BME280;63801;49.414;19.474;2023-03-23T07:40:25;93448.19;;;14.90;51.09
75219;BME280;63801;49.414;19.474;2023-03-23T07:42:26;93467.13;;;14.75;51.41
75219;BME280;63801;49.414;19.474;2023-03-23T07:44:26;93456.97;;;14.65;51.64
75219;BME280;63801;49.414;19.474;2023-03-23T07:46:27;93454.25;;;14.55;51.86
75219;BME280;63801;49.414;19.474;2023-03-23T07:48:27;93456.09;;;14.40;52.27
75219;BME280;63801;49.414;19.474;2023-03-23T07:50:28;93464.59;;;14.38;52.00
75219;BME280;63801;49.414;19.474;2023-03-23T07:52:29;93454.84;;;14.34;52.03
75219;BME280;63801;49.414;19.474;2023-03-23T07:54:30;93458.75;;;14.33;51.80
75219;BME280;63801;49.414;19.474;2023-03-23T07:56:31;93480.03;;;14.31;52.16
75219;BME280;63801;49.414;19.474;2023-03-23T07:58:31;93454.06;;;14.30;52.18
75219;BME280;63801;49.414;19.474;2023-03-23T08:00:32;93457.88;;;14.22;52.33
75219;BME280;63801;49.414;19.474;2023-03-23T08:02:32;93463.59;;;14.06;52.53
75219;BME280;63801;49.414;19.474;2023-03-23T08:04:33;93445.31;;;13.92;52.44
75219;BME280;63801;49.414;19.474;2023-03-23T08:06:37;93456.81;;;13.79;52.18
75219;BME280;63801;49.414;19.474;2023-03-23T08:08:39;93454.78;;;13.69;52.49
75219;BME280;63801;49.414;19.474;2023-03-23T08:10:40;93471.38;;;13.64;52.85
75219;BME280;63801;49.414;19.474;2023-03-23T08:12:42;93440.44;;;13.65;53.08
75219;BME280;63801;49.414;19.474;2023-03-23T08:14:42;93456.75;;;13.72;53.08
75219;BME280;63801;49.414;19.474;2023-03-23T08:16:43;93476.09;;;13.70;52.94
75219;BME280;63801;49.414;19.474;2023-03-23T08:18:43;93466.88;;;13.78;53.16
75219;BME280;63801;49.414;19.474;2023-03-23T08:20:44;93457.16;;;13.77;53.10
75219;BME280;63801;49.414;19.474;2023-03-23T08:22:50;93466.06;;;13.74;53.17
75219;BME280;63801;49.414;19.474;2023-03-23T08:24:52;93457.50;;;13.72;52.99
75219;BME280;63801;49.414;19.474;2023-03-23T08:26:53;93463.63;;;13.62;53.23
75219;BME280;63801;49.414;19.474;2023-03-23T08:28:53;93450.41;;;13.54;53.15
75219;BME280;63801;49.414;19.474;2023-03-23T08:30:53;93468.19;;;13.55;53.57
75219;BME280;63801;49.414;19.474;2023-03-23T08:32:54;93451.22;;;13.58;53.53
75219;BME280;63801;49.414;19.474;2023-03-23T08:34:55;93460.47;;;13.53;53.79
75219;BME280;63801;49.414;19.474;2023-03-23T08:36:56;93458.44;;;13.46;53.79
75219;BME280;63801;49.414;19.474;2023-03-23T08:38:56;93445.31;;;13.45;53.81
75219;BME280;63801;49.414;19.474;2023-03-23T08:41:00;93457.19;;;13.37;53.92
75219;BME280;63801;49.414;19.474;2023-03-23T08:43:01;93458.22;;;13.22;53.95
75219;BME280;63801;49.414;19.474;2023-03-23T08:45:02;93461.59;;;13.12;54.54
75219;BME280;63801;49.414;19.474;2023-03-23T08:47:03;93456.78;;;12.98;54.57
75219;BME280;63801;49.414;19.474;2023-03-23T08:49:04;93476.84;;;12.97;54.80
75219;BME280;63801;49.414;19.474;2023-03-23T08:51:06;93462.13;;;12.91;55.07
75219;BME280;63801;49.414;19.474;2023-03-23T08:53:07;93461.19;;;12.80;55.38
75219;BME280;63801;49.414;19.474;2023-03-23T08:55:07;93474.00;;;12.83;55.69
75219;BME280;63801;49.414;19.474;2023-03-23T08:57:08;93480.53;;;12.78;55.72
75219;BME280;63801;49.414;19.474;2023-03-23T08:59:09;93470.47;;;12.79;55.84
75219;BME280;63801;49.414;19.474;2023-03-23T09:01:10;93473.94;;;12.79;55.86
75219;BME280;63801;49.414;19.474;2023-03-23T09:03:11;93473.59;;;12.81;56.03
75219;BME280;63801;49.414;19.474;2023-03-23T09:05:11;93453.97;;;12.87;55.83
75219;BME280;63801;49.414;19.474;2023-03-23T09:07:12;93461.69;;;12.89;55.83
75219;BME280;63801;49.414;19.474;2023-03-23T09:09:14;93448.94;;;12.89;55.63
75219;BME280;63801;49.414;19.474;2023-03-23T09:11:14;93470.63;;;12.93;55.87
75219;BME280;63801;49.414;19.474;2023-03-23T09:13:15;93457.41;;;12.88;55.86
75219;BME280;63801;49.414;19.474;2023-03-23T09:15:16;93448.13;;;12.85;55.47
75219;BME280;63801;49.414;19.474;2023-03-23T09:17:17;93469.81;;;12.89;55.73
75219;BME280;63801;49.414;19.474;2023-03-23T09:19:17;93455.50;;;12.88;55.87
75219;BME280;63801;49.414;19.474;2023-03-23T09:21:17;93459.03;;;12.92;55.78
75219;BME280;63801;49.414;19.474;2023-03-23T09:23:18;93455.19;;;12.93;55.59
75219;BME280;63801;49.414;19.474;2023-03-23T09:25:22;93467.09;;;12.89;55.59
75219;BME280;63801;49.414;19.474;2023-03-23T09:27:24;93450.47;;;12.87;55.47
75219;BME280;63801;49.414;19.474;2023-03-23T09:29:26;93445.75;;;12.80;55.63
75219;BME280;63801;49.414;19.474;2023-03-23T09:31:27;93459.69;;;12.82;55.39
75219;BME280;63801;49.414;19.474;2023-03-23T09:33:27;93429.63;;;12.87;55.39
75219;BME280;63801;49.414;19.474;2023-03-23T09:35:33;93441.97;;;12.88;55.34
75219;BME280;63801;49.414;19.474;2023-03-23T09:37:34;93448.19;;;12.92;55.55
75219;BME280;63801;49.414;19.474;2023-03-23T09:39:35;93461.41;;;12.97;55.44
75219;BME280;63801;49.414;19.474;2023-03-23T09:42:17;93456.41;;;12.99;55.24
75219;BME280;63801;49.414;19.474;2023-03-23T09:44:33;93451.78;;;13.00;55.38
75219;BME280;63801;49.414;19.474;2023-03-23T09:46:50;93453.56;;;12.89;55.12
75219;BME280;63801;49.414;19.474;2023-03-23T09:49:01;93458.66;;;12.94;55.13
75219;BME280;63801;49.414;19.474;2023-03-23T09:51:26;93458.34;;;12.99;55.43
75219;BME280;63801;49.414;19.474;2023-03-23T09:53:37;93436.31;;;13.00;55.47
75219;BME280;63801;49.414;19.474;2023-03-23T09:55:38;93464.63;;;13.10;55.06
75219;BME280;63801;49.414;19.474;2023-03-23T09:59:55;93433.91;;;13.29;55.34
75219;BME280;63801;49.414;19.474;2023-03-23T10:02:04;93446.44;;;13.44;54.80
75219;BME280;63801;49.414;19.474;2023-03-23T10:04:41;93444.38;;;13.71;54.76
75219;BME280;63801;49.414;19.474;2023-03-23T10:06:45;93439.84;;;13.89;54.33
75219;BME280;63801;49.414;19.474;2023-03-23T10:08:51;93431.00;;;13.95;53.85
75219;BME280;63801;49.414;19.474;2023-03-23T10:11:09;93444.97;;;14.01;53.50
75219;BME280;63801;49.414;19.474;2023-03-23T10:15:30;93426.03;;;14.08;53.39
75219;BME280;63801;49.414;19.474;2023-03-23T10:17:44;93453.25;;;14.22;53.24
75219;BME280;63801;49.414;19.474;2023-03-23T10:22:15;93425.56;;;14.54;52.75
75219;BME280;63801;49.414;19.474;2023-03-23T10:24:21;93429.47;;;14.67;52.51
75219;BME280;63801;49.414;19.474;2023-03-23T10:29:08;93441.25;;;15.03;51.81
75219;BME280;63801;49.414;19.474;2023-03-23T10:31:17;93411.38;;;15.03;51.11
75219;BME280;63801;49.414;19.474;2023-03-23T10:33:41;93429.66;;;15.13;51.43
75219;BME280;63801;49.414;19.474;2023-03-23T10:35:51;93432.00;;;15.21;50.81
75219;BME280;63801;49.414;19.474;2023-03-23T10:37:58;93421.13;;;15.28;51.07
75219;BME280;63801;49.414;19.474;2023-03-23T10:40:02;93475.88;;;15.41;50.46
75219;BME280;63801;49.414;19.474;2023-03-23T10:42:03;93428.16;;;15.47;50.29
75219;BME280;63801;49.414;19.474;2023-03-23T10:44:13;93418.84;;;15.48;50.35
75219;BME280;63801;49.414;19.474;2023-03-23T10:48:33;93428.53;;;15.49;50.02
75219;BME280;63801;49.414;19.474;2023-03-23T10:50:38;93416.94;;;15.52;49.74
75219;BME280;63801;49.414;19.474;2023-03-23T10:52:41;93435.59;;;15.57;49.16
75219;BME280;63801;49.414;19.474;2023-03-23T10:55:04;93414.22;;;15.56;49.24
75219;BME280;63801;49.414;19.474;2023-03-23T10:57:29;93422.00;;;15.61;49.22
75219;BME280;63801;49.414;19.474;2023-03-23T10:59:30;93437.50;;;15.67;48.91
75219;BME280;63801;49.414;19.474;2023-03-23T11:01:34;93443.72;;;15.71;48.24
75219;BME280;63801;49.414;19.474;2023-03-23T11:03:42;93431.31;;;15.70;47.99
75219;BME280;63801;49.414;19.474;2023-03-23T11:07:48;93418.88;;;15.73;48.08
75219;BME280;63801;49.414;19.474;2023-03-23T11:09:55;93438.31;;;15.82;47.61
75219;BME280;63801;49.414;19.474;2023-03-23T11:11:56;93446.06;;;15.91;47.19
75219;BME280;63801;49.414;19.474;2023-03-23T11:14:26;93433.25;;;16.02;47.04
75219;BME280;63801;49.414;19.474;2023-03-23T11:16:28;93439.81;;;16.11;46.59
75219;BME280;63801;49.414;19.474;2023-03-23T11:18:41;93424.69;;;16.14;46.31